createdAt,value
2019-02-14T00:00:22.738Z,9.70
2019-02-14T00:02:25.673Z,13.18
2019-02-14T00:04:28.622Z,10.13
2019-02-14T00:06:32.326Z,13.25
2019-02-14T00:08:36.466Z,13.38
2019-02-14T00:10:39.396Z,15.98
2019-02-14T00:12:42.342Z,10.80
2019-02-14T00:14:45.302Z,8.05
2019-02-14T00:16:48.242Z,15.77
2019-02-14T00:18:51.177Z,14.43
2019-02-14T00:20:54.230Z,6.62
2019-02-14T00:22:57.927Z,7.05
2019-02-14T00:25:01.015Z,9.60
2019-02-14T00:27:04.753Z,10.55
2019-02-14T00:29:07.681Z,9.73
2019-02-14T00:31:11.143Z,4.85
2019-02-14T00:33:14.065Z,12.15
2019-02-14T00:35:24.863Z,3.87
2019-02-14T00:37:22.009Z,6.40
2019-02-14T00:39:24.935Z,8.13
2019-02-14T00:41:27.896Z,3.80
2019-02-14T00:43:30.951Z,3.33
2019-02-14T00:45:34.750Z,5.95
2019-02-14T00:47:36.848Z,2.78
2019-02-14T00:49:39.782Z,4.68
2019-02-14T00:51:43.494Z,4.25
2019-02-14T00:53:47.216Z,4.28
2019-02-14T00:55:50.145Z,2.78
2019-02-14T00:57:54.405Z,9.47
2019-02-14T00:59:57.373Z,6.57
2019-02-14T01:02:00.295Z,4.07
2019-02-14T01:04:03.223Z,3.57
2019-02-14T01:06:06.228Z,7.53
2019-02-14T01:08:09.152Z,3.28
2019-02-14T01:10:12.172Z,5.85
2019-02-14T01:12:15.904Z,4.82
2019-02-14T01:14:18.828Z,6.35
2019-02-14T01:16:21.841Z,2.85
2019-02-14T01:18:25.557Z,9.30
2019-02-14T01:20:28.481Z,3.05
2019-02-14T01:22:31.504Z,6.73
2019-02-14T01:24:35.229Z,4.47
2019-02-14T01:26:38.196Z,11.85
2019-02-14T01:28:41.176Z,2.65
2019-02-14T01:30:44.885Z,2.20
2019-02-14T01:32:47.826Z,3.15
2019-02-14T01:34:50.762Z,5.50
2019-02-14T01:36:54.521Z,13.73
2019-02-14T01:38:57.447Z,11.33
2019-02-14T01:41:00.373Z,3.40
2019-02-14T01:43:03.340Z,11.60
2019-02-14T01:45:06.411Z,10.15
2019-02-14T01:47:09.896Z,3.92
2019-02-14T01:49:12.817Z,6.35
2019-02-14T01:51:15.827Z,4.32
2019-02-14T01:53:19.545Z,4.47
2019-02-14T01:55:22.463Z,8.15
2019-02-14T01:57:25.493Z,10.27
2019-02-14T01:59:29.209Z,4.10
2019-02-14T02:01:32.997Z,7.50
2019-02-14T02:03:36.663Z,3.75
2019-02-14T02:05:39.603Z,6.28
2019-02-14T02:07:42.515Z,9.13
2019-02-14T02:09:45.562Z,5.90
2019-02-14T02:11:48.495Z,6.47
2019-02-14T02:13:51.507Z,2.90
2019-02-14T02:15:55.181Z,4.57
2019-02-14T02:17:58.112Z,4.90
2019-02-14T02:20:01.789Z,4.62
2019-02-14T02:22:05.466Z,5.03
2019-02-14T02:24:08.901Z,10.00
2019-02-14T02:26:11.968Z,5.95
2019-02-14T02:28:15.646Z,6.78
2019-02-14T02:30:18.576Z,14.27
2019-02-14T02:32:21.490Z,2.60
2019-02-14T02:34:24.410Z,4.87
2019-02-14T02:36:28.221Z,3.75
2019-02-14T02:38:31.132Z,4.03
2019-02-14T02:40:34.067Z,5.30
2019-02-14T02:42:37.013Z,7.15
2019-02-14T02:44:39.915Z,3.92
2019-02-14T02:46:42.925Z,4.77
2019-02-14T02:48:46.627Z,7.03
2019-02-14T02:50:50.295Z,6.78
2019-02-14T02:52:54.035Z,6.25
2019-02-14T02:54:56.954Z,6.07
2019-02-14T02:56:59.866Z,14.85
2019-02-14T02:59:02.794Z,5.28
2019-02-14T03:01:05.722Z,8.05
2019-02-14T03:03:08.654Z,3.25
2019-02-14T03:05:11.594Z,6.93
2019-02-14T03:07:14.796Z,3.75
2019-02-14T03:09:18.472Z,4.75
2019-02-14T03:11:21.406Z,9.02
2019-02-14T03:13:24.382Z,6.32
2019-02-14T03:15:27.349Z,5.07
2019-02-14T03:17:31.178Z,4.03
2019-02-14T03:19:34.086Z,9.23
2019-02-14T03:21:36.998Z,5.22
2019-02-14T03:23:40.711Z,5.93
2019-02-14T03:25:44.383Z,4.45
2019-02-14T03:27:47.319Z,8.15
2019-02-14T03:29:50.231Z,8.15
2019-02-14T03:31:53.139Z,4.37
2019-02-14T03:33:56.074Z,4.25
2019-02-14T03:35:58.979Z,5.53
2019-02-14T03:38:01.888Z,5.45
2019-02-14T03:40:05.751Z,7.10
2019-02-14T03:42:08.650Z,4.12
2019-02-14T03:44:11.568Z,7.45
2019-02-14T03:46:15.265Z,6.65
2019-02-14T03:48:18.234Z,2.47
2019-02-14T03:50:22.379Z,4.07
2019-02-14T03:52:25.294Z,4.65
2019-02-14T03:54:28.203Z,10.80
2019-02-14T03:56:31.134Z,7.35
2019-02-14T03:58:34.043Z,9.55
2019-02-14T04:00:36.970Z,7.40
2019-02-14T04:02:40.688Z,12.63
2019-02-14T04:04:43.600Z,3.05
2019-02-14T04:06:46.635Z,5.50
2019-02-14T04:08:50.438Z,15.32
2019-02-14T04:10:54.099Z,5.85
2019-02-14T04:12:57.120Z,7.20
2019-02-14T04:15:00.820Z,11.30
2019-02-14T04:17:04.495Z,12.10
2019-02-14T04:19:07.423Z,8.23
2019-02-14T04:21:10.323Z,8.20
2019-02-14T04:23:13.233Z,9.13
2019-02-14T04:25:16.367Z,13.18
2019-02-14T04:27:19.278Z,4.57
2019-02-14T04:29:22.191Z,8.77
2019-02-14T04:31:25.114Z,7.63
2019-02-14T04:33:28.035Z,5.57
2019-02-14T04:35:30.943Z,12.40
2019-02-14T04:37:34.003Z,12.32
2019-02-14T04:39:36.921Z,10.38
2019-02-14T04:41:40.695Z,8.60
2019-02-14T04:43:45.151Z,9.32
2019-02-14T04:45:48.831Z,10.23
2019-02-14T04:47:51.975Z,5.72
2019-02-14T04:49:54.883Z,9.38
2019-02-14T04:51:57.895Z,8.65
2019-02-14T04:54:01.595Z,6.00
2019-02-14T04:56:05.384Z,6.68
2019-02-14T04:58:08.314Z,3.35
2019-02-14T05:00:12.110Z,4.28
2019-02-14T05:02:15.023Z,9.02
2019-02-14T05:04:17.972Z,10.23
2019-02-14T05:06:20.908Z,18.17
2019-02-14T05:08:23.834Z,10.88
2019-02-14T05:10:26.765Z,4.65
2019-02-14T05:12:29.671Z,5.70
2019-02-14T05:14:33.342Z,9.07
2019-02-14T05:16:36.306Z,16.07
2019-02-14T05:18:39.279Z,8.93
2019-02-14T05:20:42.320Z,10.10
2019-02-14T05:22:45.990Z,10.32
2019-02-14T05:24:49.003Z,6.30
2019-02-14T05:26:53.448Z,6.68
2019-02-14T05:28:56.358Z,6.82
2019-02-14T05:30:59.275Z,4.40
2019-02-14T05:33:02.985Z,6.82
2019-02-14T05:35:06.655Z,7.43
2019-02-14T05:37:09.672Z,6.30
2019-02-14T05:39:13.469Z,13.27
2019-02-14T05:41:17.138Z,7.95
2019-02-14T05:43:20.051Z,7.82
2019-02-14T05:45:23.750Z,14.30
2019-02-14T05:47:26.987Z,6.03
2019-02-14T05:49:30.133Z,12.30
2019-02-14T05:51:33.835Z,10.32
2019-02-14T05:53:36.758Z,4.25
2019-02-14T05:55:39.790Z,9.70
2019-02-14T05:57:43.482Z,6.25
2019-02-14T05:59:47.154Z,6.40
2019-02-14T06:01:50.062Z,11.50
2019-02-14T06:03:53.757Z,10.77
2019-02-14T06:05:56.686Z,7.73
2019-02-14T06:07:59.628Z,6.77
2019-02-14T06:10:02.606Z,11.80
2019-02-14T06:12:06.302Z,3.83
2019-02-14T06:14:10.746Z,8.68
2019-02-14T06:16:13.664Z,7.07
2019-02-14T06:18:16.626Z,7.97
2019-02-14T06:20:19.561Z,9.13
2019-02-14T06:22:22.474Z,11.57
2019-02-14T06:24:26.151Z,3.87
2019-02-14T06:26:30.595Z,5.62
2019-02-14T06:28:33.506Z,10.75
2019-02-14T06:30:36.418Z,5.75
2019-02-14T06:32:39.669Z,7.57
2019-02-14T06:34:42.574Z,13.65
2019-02-14T06:36:45.603Z,6.35
2019-02-14T06:38:49.302Z,5.90
2019-02-14T06:40:52.996Z,8.75
2019-02-14T06:42:56.695Z,9.88
2019-02-14T06:45:00.386Z,11.98
2019-02-14T06:47:04.793Z,13.30
2019-02-14T06:49:07.067Z,8.02
2019-02-14T06:51:10.015Z,7.78
2019-02-14T06:53:12.919Z,9.57
2019-02-14T06:55:16.414Z,15.82
2019-02-14T06:57:19.420Z,8.82
2019-02-14T06:59:23.095Z,6.07
2019-02-14T07:01:26.047Z,5.35
2019-02-14T07:03:28.954Z,6.80
2019-02-14T07:05:31.886Z,5.93
2019-02-14T07:07:34.795Z,6.90
2019-02-14T07:09:37.715Z,8.63
2019-02-14T07:11:40.666Z,6.40
2019-02-14T07:13:43.596Z,7.93
2019-02-14T07:15:46.527Z,7.55
2019-02-14T07:17:49.455Z,7.35
2019-02-14T07:19:53.259Z,6.87
2019-02-14T07:21:56.944Z,22.85
2019-02-14T07:23:59.879Z,7.12
2019-02-14T07:26:02.786Z,8.20
2019-02-14T07:28:05.804Z,6.57
2019-02-14T07:30:16.144Z,16.20
2019-02-14T07:32:19.062Z,22.10
2019-02-14T07:34:21.993Z,10.73
2019-02-14T07:36:24.895Z,8.50
2019-02-14T07:38:27.802Z,11.93
2019-02-14T07:40:30.770Z,7.13
2019-02-14T07:42:34.468Z,7.62
2019-02-14T07:44:38.134Z,17.95
2019-02-14T07:46:41.082Z,7.55
2019-02-14T07:48:44.004Z,8.57
2019-02-14T07:50:47.022Z,7.85
2019-02-14T07:52:50.740Z,6.50
2019-02-14T07:54:53.666Z,9.52
2019-02-14T07:56:56.578Z,5.78
2019-02-14T07:59:00.911Z,13.63
2019-02-14T08:01:03.849Z,14.23
2019-02-14T08:03:06.791Z,8.98
2019-02-14T08:05:09.717Z,6.07
2019-02-14T08:07:12.724Z,7.37
2019-02-14T08:09:16.013Z,9.95
2019-02-14T08:11:19.686Z,11.23
2019-02-14T08:13:22.696Z,12.52
2019-02-14T08:15:26.498Z,13.10
2019-02-14T08:17:30.938Z,11.45
2019-02-14T08:19:33.850Z,20.35
2019-02-14T08:21:36.803Z,8.45
2019-02-14T08:23:39.714Z,7.97
2019-02-14T08:25:42.622Z,10.25
2019-02-14T08:27:45.575Z,10.13
2019-02-14T08:29:48.487Z,7.18
2019-02-14T08:31:51.402Z,8.45
2019-02-14T08:33:54.797Z,15.77
2019-02-14T08:35:57.835Z,11.88
2019-02-14T08:38:02.260Z,9.55
2019-02-14T08:40:06.018Z,11.38
2019-02-14T08:42:08.945Z,13.13
2019-02-14T08:44:11.948Z,10.88
2019-02-14T08:46:15.648Z,7.60
2019-02-14T08:48:18.672Z,10.20
2019-02-14T08:50:22.461Z,19.83
2019-02-14T08:52:25.394Z,16.57
2019-02-14T08:54:28.318Z,22.62
2019-02-14T08:56:31.260Z,13.40
2019-02-14T08:58:34.198Z,12.43
2019-02-14T09:00:37.115Z,8.82
2019-02-14T09:02:40.105Z,10.52
2019-02-14T09:04:43.027Z,13.52
2019-02-14T09:06:45.939Z,11.88
2019-02-14T09:08:48.907Z,9.15
2019-02-14T09:10:51.960Z,11.02
2019-02-14T09:12:55.646Z,11.63
2019-02-14T09:14:59.389Z,17.55
2019-02-14T09:17:02.287Z,23.35
2019-02-14T09:19:06.232Z,12.32
2019-02-14T09:21:09.945Z,18.83
2019-02-14T09:23:14.717Z,14.52
2019-02-14T09:25:16.738Z,14.95
2019-02-14T09:27:20.416Z,15.77
2019-02-14T09:29:24.108Z,15.35
2019-02-14T09:31:27.060Z,21.45
2019-02-14T09:33:29.977Z,10.23
2019-02-14T09:35:32.978Z,20.10
2019-02-14T09:37:36.781Z,19.58
2019-02-14T09:39:41.070Z,21.42
2019-02-14T09:41:43.372Z,13.37
2019-02-14T09:43:46.311Z,17.17
2019-02-14T09:45:49.227Z,11.67
2019-02-14T09:47:53.940Z,17.23
2019-02-14T09:49:55.232Z,12.82
2019-02-14T09:51:58.142Z,14.00
2019-02-14T09:54:01.093Z,14.10
2019-02-14T09:56:04.054Z,19.08
2019-02-14T09:58:06.974Z,13.27
2019-02-14T10:00:15.537Z,16.42
2019-02-14T10:02:19.220Z,16.70
2019-02-14T10:04:22.938Z,18.80
2019-02-14T10:06:26.642Z,19.05
2019-02-14T10:08:29.559Z,16.62
2019-02-14T10:10:32.477Z,19.17
2019-02-14T10:12:35.799Z,20.02
2019-02-14T10:14:38.707Z,16.17
2019-02-14T10:16:41.646Z,14.77
2019-02-14T10:18:44.866Z,11.02
2019-02-14T10:20:47.786Z,12.18
2019-02-14T10:22:50.736Z,14.20
2019-02-14T10:24:53.799Z,16.37
2019-02-14T10:26:56.735Z,14.57
2019-02-14T10:28:59.668Z,12.30
2019-02-14T10:31:03.472Z,49.03
2019-02-14T10:33:06.386Z,13.60
2019-02-14T10:35:09.422Z,18.20
2019-02-14T10:37:13.341Z,16.07
2019-02-14T10:39:16.387Z,17.25
2019-02-14T10:41:19.302Z,16.27
2019-02-14T10:43:22.249Z,16.90
2019-02-14T10:45:25.166Z,18.10
2019-02-14T10:47:28.102Z,19.77
2019-02-14T10:49:31.035Z,26.70
2019-02-14T10:51:33.951Z,18.10
2019-02-14T10:53:37.542Z,17.80
2019-02-14T10:55:41.262Z,20.45
2019-02-14T10:57:44.178Z,13.68
2019-02-14T10:59:47.894Z,24.00
2019-02-14T11:01:50.821Z,28.83
2019-02-14T11:03:53.841Z,20.90
2019-02-14T11:05:57.593Z,19.23
2019-02-14T11:08:00.511Z,38.30
2019-02-14T11:10:04.207Z,15.13
2019-02-14T11:12:07.191Z,16.10
2019-02-14T11:14:10.112Z,30.70
2019-02-14T11:16:13.035Z,21.70
2019-02-14T11:18:15.995Z,18.27
2019-02-14T11:20:19.726Z,19.10
2019-02-14T11:22:22.737Z,20.77
2019-02-14T11:24:26.538Z,19.92
2019-02-14T11:26:30.348Z,25.80
2019-02-14T11:28:33.272Z,21.80
2019-02-14T11:30:36.218Z,23.92
2019-02-14T11:32:39.143Z,20.08
2019-02-14T11:34:42.172Z,21.50
2019-02-14T11:36:45.890Z,27.67
2019-02-14T11:38:48.818Z,22.80
2019-02-14T11:40:51.745Z,31.08
2019-02-14T11:42:55.536Z,17.73
2019-02-14T11:44:59.237Z,21.92
2019-02-14T11:47:02.921Z,15.05
2019-02-14T11:49:06.711Z,18.70
2019-02-14T11:51:09.639Z,29.40
2019-02-14T11:53:14.221Z,25.85
2019-02-14T11:55:15.604Z,17.67
2019-02-14T11:57:18.519Z,17.52
2019-02-14T11:59:21.437Z,17.83
2019-02-14T12:01:24.432Z,18.80
2019-02-14T12:03:28.215Z,21.45
2019-02-14T12:05:31.176Z,20.95
2019-02-14T12:07:34.099Z,20.10
2019-02-14T12:09:37.778Z,18.70
2019-02-14T12:11:41.603Z,25.50
2019-02-14T12:13:45.290Z,18.67
2019-02-14T12:15:48.970Z,14.13
2019-02-14T12:17:51.938Z,22.85
2019-02-14T12:19:54.971Z,16.80
2019-02-14T12:21:58.646Z,16.73
2019-02-14T12:24:02.795Z,19.60
2019-02-14T12:26:05.933Z,22.00
2019-02-14T12:28:08.806Z,22.03
2019-02-14T12:30:13.275Z,17.08
2019-02-14T12:32:16.219Z,15.70
2019-02-14T12:34:19.160Z,24.58
2019-02-14T12:36:22.151Z,18.08
2019-02-14T12:38:25.068Z,18.63
2019-02-14T12:40:27.987Z,18.43
2019-02-14T12:42:31.819Z,20.37
2019-02-14T12:44:34.760Z,18.23
2019-02-14T12:46:38.458Z,24.50
2019-02-14T12:48:41.423Z,21.27
2019-02-14T12:50:45.119Z,25.58
2019-02-14T12:52:49.368Z,17.65
2019-02-14T12:54:52.299Z,16.20
2019-02-14T12:56:55.239Z,29.00
2019-02-14T12:58:58.185Z,15.20
2019-02-14T13:01:02.615Z,23.30
2019-02-14T13:03:05.552Z,24.48
2019-02-14T13:05:08.791Z,24.95
2019-02-14T13:07:11.722Z,26.33
2019-02-14T13:09:20.088Z,19.02
2019-02-14T13:11:18.473Z,28.77
2019-02-14T13:13:21.403Z,18.27
2019-02-14T13:15:25.084Z,22.98
2019-02-14T13:17:29.346Z,20.08
2019-02-14T13:19:33.047Z,28.10
2019-02-14T13:21:36.733Z,26.23
2019-02-14T13:23:39.832Z,23.50
2019-02-14T13:25:43.522Z,26.23
2019-02-14T13:27:47.662Z,22.67
2019-02-14T13:29:50.588Z,25.97
2019-02-14T13:31:53.533Z,20.00
2019-02-14T13:33:56.479Z,36.95
2019-02-14T13:36:00.166Z,27.00
2019-02-14T13:38:03.095Z,21.47
2019-02-14T13:40:06.056Z,27.23
2019-02-14T13:42:09.856Z,22.92
2019-02-14T13:44:12.791Z,27.73
2019-02-14T13:46:15.964Z,25.73
2019-02-14T13:48:18.902Z,29.10
2019-02-14T13:50:21.834Z,24.27
2019-02-14T13:52:25.652Z,22.83
2019-02-14T13:54:28.579Z,20.53
2019-02-14T13:56:31.512Z,29.40
2019-02-14T13:58:34.485Z,28.33
2019-02-14T14:00:37.417Z,22.70
2019-02-14T14:02:40.356Z,26.03
2019-02-14T14:04:44.864Z,32.20
2019-02-14T14:06:46.469Z,24.02
2019-02-14T14:08:49.401Z,31.20
2019-02-14T14:10:52.387Z,27.10
2019-02-14T14:12:55.423Z,26.17
2019-02-14T14:14:58.730Z,24.47
2019-02-14T14:17:01.650Z,27.87
2019-02-14T14:19:06.408Z,31.93
2019-02-14T14:21:07.578Z,23.83
2019-02-14T14:23:11.342Z,33.30
2019-02-14T14:25:15.044Z,32.23
2019-02-14T14:27:18.763Z,44.63
2019-02-14T14:29:21.695Z,25.37
2019-02-14T14:31:24.735Z,25.03
2019-02-14T14:33:27.979Z,33.23
2019-02-14T14:35:30.939Z,26.03
2019-02-14T14:37:34.064Z,29.23
2019-02-14T14:39:37.820Z,34.33
2019-02-14T14:41:40.801Z,27.90
2019-02-14T14:43:43.753Z,37.17
2019-02-14T14:45:47.578Z,31.63
2019-02-14T14:47:50.552Z,24.27
2019-02-14T14:49:53.504Z,27.80
2019-02-14T14:51:57.277Z,27.87
2019-02-14T14:54:00.302Z,25.47
2019-02-14T14:56:04.106Z,37.33
2019-02-14T14:58:07.909Z,37.57
2019-02-14T15:00:11.714Z,32.53
2019-02-14T15:02:14.638Z,29.10
2019-02-14T15:04:18.087Z,27.15
2019-02-14T15:06:21.791Z,28.87
2019-02-14T15:08:24.723Z,27.17
2019-02-14T15:10:27.715Z,32.93
2019-02-14T15:12:30.646Z,28.77
2019-02-14T15:14:33.810Z,25.17
2019-02-14T15:16:36.836Z,41.63
2019-02-14T15:18:39.794Z,27.80
2019-02-14T15:20:43.463Z,26.90
2019-02-14T15:22:46.469Z,28.00
2019-02-14T15:24:50.154Z,27.83
2019-02-14T15:26:53.990Z,26.23
2019-02-14T15:28:57.056Z,29.83
2019-02-14T15:31:00.755Z,27.60
2019-02-14T15:33:04.577Z,34.43
2019-02-14T15:35:07.505Z,22.87
2019-02-14T15:37:10.455Z,26.40
2019-02-14T15:39:13.513Z,47.17
2019-02-14T15:41:17.310Z,35.50
2019-02-14T15:43:21.012Z,26.80
2019-02-14T15:45:24.027Z,27.80
2019-02-14T15:47:26.981Z,32.70
2019-02-14T15:49:29.929Z,27.43
2019-02-14T15:51:33.663Z,31.53
2019-02-14T15:53:36.600Z,24.57
2019-02-14T15:55:41.140Z,24.77
2019-02-14T15:57:44.759Z,32.93
2019-02-14T15:59:45.987Z,27.00
2019-02-14T16:01:49.687Z,23.07
2019-02-14T16:03:53.504Z,36.37
2019-02-14T16:05:56.451Z,30.03
2019-02-14T16:08:00.943Z,26.87
2019-02-14T16:10:03.717Z,32.57
2019-02-14T16:12:06.020Z,24.03
2019-02-14T16:14:10.486Z,26.97
2019-02-14T16:16:13.553Z,21.87
2019-02-14T16:18:17.353Z,33.73
2019-02-14T16:20:21.078Z,32.17
2019-02-14T16:22:29.835Z,33.50
2019-02-14T16:24:27.178Z,22.60
2019-02-14T16:26:30.331Z,32.37
2019-02-14T16:28:33.251Z,32.17
2019-02-14T16:30:36.198Z,29.63
2019-02-14T16:32:40.078Z,23.50
2019-02-14T16:34:43.767Z,22.90
2019-02-14T16:36:46.681Z,34.00
2019-02-14T16:38:50.347Z,26.70
2019-02-14T16:40:54.748Z,31.20
2019-02-14T16:42:57.679Z,34.00
2019-02-14T16:45:00.625Z,26.70
2019-02-14T16:47:04.730Z,27.77
2019-02-14T16:49:08.651Z,27.97
2019-02-14T16:51:11.661Z,25.30
2019-02-14T16:53:14.593Z,28.53
2019-02-14T16:55:17.555Z,21.07
2019-02-14T16:57:20.584Z,24.53
2019-02-14T16:59:23.514Z,24.95
2019-02-14T17:01:26.471Z,29.63
2019-02-14T17:03:29.402Z,29.07
2019-02-14T17:05:32.517Z,21.20
2019-02-14T17:07:36.258Z,26.30
2019-02-14T17:09:39.304Z,15.98
2019-02-14T17:11:43.131Z,20.13
2019-02-14T17:13:46.079Z,19.98
2019-02-14T17:15:49.890Z,14.97
2019-02-14T17:17:52.859Z,13.90
2019-02-14T17:19:56.555Z,26.08
2019-02-14T17:21:59.483Z,15.93
2019-02-14T17:24:02.431Z,18.23
2019-02-14T17:26:05.367Z,16.85
2019-02-14T17:28:08.324Z,12.23
2019-02-14T17:30:11.258Z,16.02
2019-02-14T17:32:14.170Z,13.63
2019-02-14T17:34:17.131Z,9.67
2019-02-14T17:36:20.815Z,10.10
2019-02-14T17:38:23.739Z,9.23
2019-02-14T17:40:26.835Z,12.27
2019-02-14T17:42:29.759Z,13.17
2019-02-14T17:44:32.688Z,15.13
2019-02-14T17:46:35.696Z,15.20
2019-02-14T17:48:38.644Z,16.23
2019-02-14T17:50:41.830Z,19.27
2019-02-14T17:52:45.550Z,15.50
2019-02-14T17:54:48.474Z,19.15
2019-02-14T17:56:51.404Z,13.85
2019-02-14T17:58:54.496Z,14.27
2019-02-14T18:00:57.457Z,16.55
2019-02-14T18:03:01.183Z,17.48
2019-02-14T18:05:04.100Z,17.55
2019-02-14T18:07:07.044Z,11.48
2019-02-14T18:09:10.011Z,13.77
2019-02-14T18:11:13.682Z,16.33
2019-02-14T18:13:16.600Z,16.50
2019-02-14T18:15:20.629Z,17.86
2019-02-14T18:17:23.550Z,20.35
2019-02-14T18:19:27.249Z,29.40
2019-02-14T18:21:30.235Z,17.73
2019-02-14T18:23:33.208Z,18.80
2019-02-14T18:25:36.244Z,17.17
2019-02-14T18:27:39.175Z,12.68
2019-02-14T18:29:42.123Z,9.50
2019-02-14T18:31:45.066Z,11.35
2019-02-14T18:33:48.754Z,11.57
2019-02-14T18:35:53.294Z,9.43
2019-02-14T18:37:57.096Z,14.73
2019-02-14T18:40:00.769Z,20.57
2019-02-14T18:42:04.467Z,13.53
2019-02-14T18:44:07.403Z,12.77
2019-02-14T18:46:10.461Z,11.70
2019-02-14T18:48:14.675Z,11.52
2019-02-14T18:50:18.383Z,13.57
2019-02-14T18:52:21.357Z,14.87
2019-02-14T18:54:25.105Z,16.52
2019-02-14T18:56:28.040Z,20.30
2019-02-14T18:58:31.842Z,16.40
2019-02-14T19:00:35.645Z,19.52
2019-02-14T19:02:39.464Z,25.02
2019-02-14T19:04:42.387Z,25.63
2019-02-14T19:06:45.335Z,18.10
2019-02-14T19:08:48.271Z,12.50
2019-02-14T19:10:51.193Z,21.27
2019-02-14T19:12:54.161Z,14.73
2019-02-14T19:14:57.097Z,13.88
2019-02-14T19:17:00.083Z,15.18
2019-02-14T19:19:03.041Z,12.50
2019-02-14T19:21:05.951Z,14.60
2019-02-14T19:23:09.996Z,16.33
2019-02-14T19:25:13.801Z,11.17
2019-02-14T19:27:16.807Z,13.52
2019-02-14T19:29:19.726Z,24.60
2019-02-14T19:31:22.675Z,14.02
2019-02-14T19:33:25.595Z,15.63
2019-02-14T19:35:28.545Z,25.17
2019-02-14T19:37:31.592Z,19.77
2019-02-14T19:39:35.327Z,19.83
2019-02-14T19:41:38.255Z,18.45
2019-02-14T19:43:41.195Z,18.17
2019-02-14T19:45:44.137Z,16.15
2019-02-14T19:47:47.110Z,13.30
2019-02-14T19:49:50.801Z,19.25
2019-02-14T19:51:55.345Z,15.80
2019-02-14T19:53:58.295Z,18.62
2019-02-14T19:56:01.239Z,16.20
2019-02-14T19:58:04.167Z,18.55
2019-02-14T20:00:12.740Z,34.30
2019-02-14T20:02:15.785Z,24.35
2019-02-14T20:04:19.587Z,20.67
2019-02-14T20:06:24.131Z,15.48
2019-02-14T20:08:27.055Z,18.40
2019-02-14T20:10:30.076Z,16.02
2019-02-14T20:12:33.891Z,20.60
2019-02-14T20:14:36.810Z,19.12
2019-02-14T20:16:39.740Z,15.73
2019-02-14T20:18:42.758Z,18.90
2019-02-14T20:20:45.676Z,23.42
2019-02-14T20:22:48.807Z,25.85
2019-02-14T20:24:51.755Z,22.65
2019-02-14T20:26:54.670Z,20.57
2019-02-14T20:28:57.616Z,18.80
2019-02-14T20:31:00.528Z,16.55
2019-02-14T20:33:05.123Z,18.70
2019-02-14T20:35:07.201Z,16.83
2019-02-14T20:37:10.876Z,21.40
2019-02-14T20:39:14.805Z,21.02
2019-02-14T20:41:18.487Z,21.15
2019-02-14T20:43:22.184Z,20.48
2019-02-14T20:45:25.919Z,28.05
2019-02-14T20:47:28.842Z,20.67
2019-02-14T20:49:31.771Z,13.52
2019-02-14T20:51:38.445Z,15.18
2019-02-14T20:53:38.521Z,14.75
2019-02-14T20:55:41.430Z,18.00
2019-02-14T20:57:44.523Z,20.70
2019-02-14T20:59:48.223Z,18.80
2019-02-14T21:01:51.903Z,14.65
2019-02-14T21:03:54.862Z,14.68
2019-02-14T21:05:57.784Z,12.75
2019-02-14T21:08:01.484Z,16.05
2019-02-14T21:10:05.306Z,17.17
2019-02-14T21:12:08.251Z,13.20
2019-02-14T21:14:11.162Z,12.75
2019-02-14T21:16:14.106Z,14.57
2019-02-14T21:18:17.032Z,12.73
2019-02-14T21:20:19.967Z,17.60
2019-02-14T21:22:22.904Z,12.27
2019-02-14T21:24:25.830Z,17.77
2019-02-14T21:26:28.761Z,13.65
2019-02-14T21:28:31.704Z,20.37
2019-02-14T21:30:36.191Z,16.83
2019-02-14T21:32:38.392Z,14.80
2019-02-14T21:34:42.218Z,15.55
2019-02-14T21:36:45.608Z,20.30
2019-02-14T21:38:49.390Z,18.42
2019-02-14T21:40:52.340Z,18.02
2019-02-14T21:42:56.060Z,14.35
2019-02-14T21:44:58.990Z,17.20
2019-02-14T21:47:02.055Z,16.45
2019-02-14T21:49:05.826Z,19.87
2019-02-14T21:51:08.680Z,12.93
2019-02-14T21:53:11.631Z,12.80
2019-02-14T21:55:14.628Z,15.70
2019-02-14T21:57:18.283Z,9.52
2019-02-14T21:59:22.018Z,16.40
2019-02-14T22:01:24.968Z,12.60
2019-02-14T22:03:28.674Z,13.33
2019-02-14T22:05:32.518Z,13.32
2019-02-14T22:07:36.407Z,16.35
2019-02-14T22:09:39.351Z,17.80
2019-02-14T22:11:43.078Z,15.15
2019-02-14T22:13:46.755Z,15.05
2019-02-14T22:15:50.457Z,19.75
2019-02-14T22:17:54.202Z,17.75
2019-02-14T22:19:57.179Z,19.67
2019-02-14T22:22:00.106Z,16.37
2019-02-14T22:24:03.429Z,17.02
2019-02-14T22:26:07.117Z,15.73
2019-02-14T22:28:10.798Z,12.95
2019-02-14T22:30:15.742Z,11.00
2019-02-14T22:32:18.649Z,14.43
2019-02-14T22:34:22.342Z,9.73
2019-02-14T22:36:26.053Z,15.40
2019-02-14T22:38:28.964Z,18.23
2019-02-14T22:40:31.878Z,10.77
2019-02-14T22:42:35.046Z,12.60
2019-02-14T22:44:37.972Z,13.75
2019-02-14T22:46:41.669Z,11.77
2019-02-14T22:48:45.479Z,12.37
2019-02-14T22:50:49.750Z,11.15
2019-02-14T22:52:52.783Z,11.60
2019-02-14T22:54:55.699Z,12.73
2019-02-14T22:56:58.606Z,11.60
2019-02-14T22:59:03.264Z,13.97
2019-02-14T23:01:07.246Z,16.72
2019-02-14T23:03:10.202Z,12.20
2019-02-14T23:05:14.218Z,15.47
2019-02-14T23:07:17.130Z,22.40
2019-02-14T23:09:21.483Z,11.98
2019-02-14T23:11:24.452Z,14.15
2019-02-14T23:13:27.377Z,14.90
2019-02-14T23:15:30.306Z,12.88
2019-02-14T23:17:33.254Z,13.30
2019-02-14T23:19:36.168Z,13.40
2019-02-14T23:21:39.850Z,13.50
2019-02-14T23:23:42.778Z,10.93
2019-02-14T23:25:45.705Z,15.10
2019-02-14T23:27:49.389Z,19.57
2019-02-14T23:29:52.344Z,15.85
2019-02-14T23:31:55.262Z,10.88
2019-02-14T23:33:58.171Z,13.35
2019-02-14T23:36:01.130Z,9.15
2019-02-14T23:38:04.044Z,11.27
2019-02-14T23:40:07.784Z,11.00
2019-02-14T23:42:10.669Z,7.87
2019-02-14T23:44:13.593Z,10.05
2019-02-14T23:46:17.497Z,13.43
2019-02-14T23:48:21.175Z,10.30
2019-02-14T23:50:24.966Z,9.55
2019-02-14T23:52:27.903Z,9.45
2019-02-14T23:54:30.837Z,9.23
2019-02-14T23:56:33.849Z,8.32
2019-02-14T23:58:37.651Z,8.15
